sensor_id;sensor_type;location;lat;lon;timestamp;P1;durP1;ratioP1;P2;durP2;ratioP2
7665;SDS011;3875;46.562;4.898;2024-01-30T00:01:52;0.73;;;0.73;;
7665;SDS011;3875;46.562;4.898;2024-01-30T00:04:17;1.43;;;1.33;;
7665;SDS011;3875;46.562;4.898;2024-01-30T00:06:43;0.60;;;0.60;;
7665;SDS011;3875;46.562;4.898;2024-01-30T00:09:09;0.70;;;0.70;;
7665;SDS011;3875;46.562;4.898;2024-01-30T00:11:36;0.50;;;0.50;;
7665;SDS011;3875;46.562;4.898;2024-01-30T00:14:02;1.53;;;1.43;;
7665;SDS011;3875;46.562;4.898;2024-01-30T00:16:28;0.60;;;0.60;;
7665;SDS011;3875;46.562;4.898;2024-01-30T00:18:54;0.83;;;0.83;;
7665;SDS011;3875;46.562;4.898;2024-01-30T00:21:20;0.80;;;0.80;;
7665;SDS011;3875;46.562;4.898;2024-01-30T00:23:46;0.73;;;0.73;;
7665;SDS011;3875;46.562;4.898;2024-01-30T00:26:12;0.60;;;0.60;;
7665;SDS011;3875;46.562;4.898;2024-01-30T00:28:39;0.70;;;0.70;;
7665;SDS011;3875;46.562;4.898;2024-01-30T00:31:06;0.77;;;0.73;;
7665;SDS011;3875;46.562;4.898;2024-01-30T00:33:32;0.67;;;0.67;;
7665;SDS011;3875;46.562;4.898;2024-01-30T00:35:57;0.90;;;0.90;;
7665;SDS011;3875;46.562;4.898;2024-01-30T00:38:23;2.77;;;2.20;;
7665;SDS011;3875;46.562;4.898;2024-01-30T00:40:49;0.77;;;0.77;;
7665;SDS011;3875;46.562;4.898;2024-01-30T00:43:15;0.70;;;0.70;;
7665;SDS011;3875;46.562;4.898;2024-01-30T00:45:41;0.60;;;0.60;;
7665;SDS011;3875;46.562;4.898;2024-01-30T00:48:08;1.77;;;1.00;;
7665;SDS011;3875;46.562;4.898;2024-01-30T00:50:34;0.70;;;0.70;;
7665;SDS011;3875;46.562;4.898;2024-01-30T00:53:00;0.83;;;0.80;;
7665;SDS011;3875;46.562;4.898;2024-01-30T00:55:26;1.37;;;0.87;;
7665;SDS011;3875;46.562;4.898;2024-01-30T00:57:51;3.10;;;1.43;;
7665;SDS011;3875;46.562;4.898;2024-01-30T01:00:17;4.40;;;1.57;;
7665;SDS011;3875;46.562;4.898;2024-01-30T01:02:43;7.90;;;2.30;;
7665;SDS011;3875;46.562;4.898;2024-01-30T01:05:09;9.47;;;4.70;;
7665;SDS011;3875;46.562;4.898;2024-01-30T01:07:35;29.17;;;27.03;;
7665;SDS011;3875;46.562;4.898;2024-01-30T01:10:01;20.17;;;18.70;;
7665;SDS011;3875;46.562;4.898;2024-01-30T01:12:27;9.77;;;8.83;;
7665;SDS011;3875;46.562;4.898;2024-01-30T01:14:53;7.77;;;4.70;;
7665;SDS011;3875;46.562;4.898;2024-01-30T01:17:19;6.90;;;4.53;;
7665;SDS011;3875;46.562;4.898;2024-01-30T01:19:44;10.20;;;8.33;;
7665;SDS011;3875;46.562;4.898;2024-01-30T01:22:10;7.10;;;2.90;;
7665;SDS011;3875;46.562;4.898;2024-01-30T01:24:36;5.50;;;2.87;;
7665;SDS011;3875;46.562;4.898;2024-01-30T01:27:02;4.37;;;2.83;;
7665;SDS011;3875;46.562;4.898;2024-01-30T01:29:28;0.77;;;0.70;;
7665;SDS011;3875;46.562;4.898;2024-01-30T01:31:57;0.70;;;0.70;;
7665;SDS011;3875;46.562;4.898;2024-01-30T01:34:23;0.50;;;0.50;;
7665;SDS011;3875;46.562;4.898;2024-01-30T01:36:50;0.70;;;0.70;;
7665;SDS011;3875;46.562;4.898;2024-01-30T01:39:16;0.63;;;0.63;;
7665;SDS011;3875;46.562;4.898;2024-01-30T01:41:42;0.80;;;0.80;;
7665;SDS011;3875;46.562;4.898;2024-01-30T01:44:08;0.70;;;0.70;;
7665;SDS011;3875;46.562;4.898;2024-01-30T01:46:34;1.10;;;1.07;;
7665;SDS011;3875;46.562;4.898;2024-01-30T01:49:04;0.60;;;0.60;;
7665;SDS011;3875;46.562;4.898;2024-01-30T01:51:31;0.60;;;0.60;;
7665;SDS011;3875;46.562;4.898;2024-01-30T01:53:59;0.83;;;0.83;;
7665;SDS011;3875;46.562;4.898;2024-01-30T01:56:28;0.87;;;0.87;;
7665;SDS011;3875;46.562;4.898;2024-01-30T01:58:55;1.53;;;1.43;;
7665;SDS011;3875;46.562;4.898;2024-01-30T02:01:25;1.00;;;0.90;;
7665;SDS011;3875;46.562;4.898;2024-01-30T02:03:52;5.60;;;1.73;;
7665;SDS011;3875;46.562;4.898;2024-01-30T02:06:18;7.63;;;2.17;;
7665;SDS011;3875;46.562;4.898;2024-01-30T02:08:44;5.77;;;1.67;;
7665;SDS011;3875;46.562;4.898;2024-01-30T02:11:10;9.67;;;2.83;;
7665;SDS011;3875;46.562;4.898;2024-01-30T02:13:36;5.67;;;1.73;;
7665;SDS011;3875;46.562;4.898;2024-01-30T02:16:02;5.03;;;1.53;;
7665;SDS011;3875;46.562;4.898;2024-01-30T02:18:28;4.97;;;1.70;;
7665;SDS011;3875;46.562;4.898;2024-01-30T02:20:54;9.13;;;2.40;;
7665;SDS011;3875;46.562;4.898;2024-01-30T02:23:23;1.90;;;1.10;;
7665;SDS011;3875;46.562;4.898;2024-01-30T02:25:52;1.50;;;0.97;;
7665;SDS011;3875;46.562;4.898;2024-01-30T02:28:18;0.97;;;0.80;;
7665;SDS011;3875;46.562;4.898;2024-01-30T02:30:45;1.00;;;0.90;;
7665;SDS011;3875;46.562;4.898;2024-01-30T02:33:11;1.20;;;1.07;;
7665;SDS011;3875;46.562;4.898;2024-01-30T02:35:37;5.03;;;1.60;;
7665;SDS011;3875;46.562;4.898;2024-01-30T02:38:03;5.97;;;1.90;;
7665;SDS011;3875;46.562;4.898;2024-01-30T02:40:30;8.47;;;2.40;;
7665;SDS011;3875;46.562;4.898;2024-01-30T02:42:56;5.07;;;1.67;;
7665;SDS011;3875;46.562;4.898;2024-01-30T02:45:22;7.03;;;2.03;;
7665;SDS011;3875;46.562;4.898;2024-01-30T02:47:48;6.00;;;1.67;;
7665;SDS011;3875;46.562;4.898;2024-01-30T02:50:14;4.63;;;1.43;;
7665;SDS011;3875;46.562;4.898;2024-01-30T02:52:41;3.60;;;1.40;;
7665;SDS011;3875;46.562;4.898;2024-01-30T02:55:08;5.63;;;1.60;;
7665;SDS011;3875;46.562;4.898;2024-01-30T02:57:34;5.43;;;1.70;;
7665;SDS011;3875;46.562;4.898;2024-01-30T03:00:00;4.23;;;1.40;;
7665;SDS011;3875;46.562;4.898;2024-01-30T03:02:26;3.20;;;1.10;;
7665;SDS011;3875;46.562;4.898;2024-01-30T03:04:52;4.53;;;1.40;;
7665;SDS011;3875;46.562;4.898;2024-01-30T03:07:17;3.73;;;1.27;;
7665;SDS011;3875;46.562;4.898;2024-01-30T03:09:43;5.53;;;2.23;;
7665;SDS011;3875;46.562;4.898;2024-01-30T03:12:09;5.43;;;1.83;;
7665;SDS011;3875;46.562;4.898;2024-01-30T03:14:35;5.67;;;2.03;;
7665;SDS011;3875;46.562;4.898;2024-01-30T03:17:00;5.13;;;1.60;;
7665;SDS011;3875;46.562;4.898;2024-01-30T03:19:26;5.57;;;2.13;;
7665;SDS011;3875;46.562;4.898;2024-01-30T03:21:52;4.27;;;1.47;;
7665;SDS011;3875;46.562;4.898;2024-01-30T03:24:18;6.27;;;1.90;;
7665;SDS011;3875;46.562;4.898;2024-01-30T03:26:44;1.63;;;1.20;;
7665;SDS011;3875;46.562;4.898;2024-01-30T03:29:10;1.37;;;1.10;;
7665;SDS011;3875;46.562;4.898;2024-01-30T03:31:35;1.30;;;0.90;;
7665;SDS011;3875;46.562;4.898;2024-01-30T03:34:01;4.67;;;1.63;;
7665;SDS011;3875;46.562;4.898;2024-01-30T03:36:27;4.83;;;1.57;;
7665;SDS011;3875;46.562;4.898;2024-01-30T03:38:53;6.73;;;2.00;;
7665;SDS011;3875;46.562;4.898;2024-01-30T03:41:19;8.50;;;2.47;;
7665;SDS011;3875;46.562;4.898;2024-01-30T03:43:44;11.43;;;8.10;;
7665;SDS011;3875;46.562;4.898;2024-01-30T03:46:11;10.90;;;10.00;;
7665;SDS011;3875;46.562;4.898;2024-01-30T03:48:38;2.10;;;1.03;;
7665;SDS011;3875;46.562;4.898;2024-01-30T03:51:04;1.50;;;1.00;;
7665;SDS011;3875;46.562;4.898;2024-01-30T03:53:30;13.73;;;12.40;;
7665;SDS011;3875;46.562;4.898;2024-01-30T03:55:56;21.50;;;20.10;;
7665;SDS011;3875;46.562;4.898;2024-01-30T03:58:22;93.83;;;88.13;;
7665;SDS011;3875;46.562;4.898;2024-01-30T04:00:47;82.60;;;77.83;;
7665;SDS011;3875;46.562;4.898;2024-01-30T04:03:16;129.00;;;120.77;;
7665;SDS011;3875;46.562;4.898;2024-01-30T04:05:42;127.53;;;120.07;;
7665;SDS011;3875;46.562;4.898;2024-01-30T04:08:08;68.13;;;64.33;;
7665;SDS011;3875;46.562;4.898;2024-01-30T04:10:34;112.50;;;106.57;;
7665;SDS011;3875;46.562;4.898;2024-01-30T04:13:00;160.17;;;150.53;;
7665;SDS011;3875;46.562;4.898;2024-01-30T04:15:26;20.50;;;19.13;;
7665;SDS011;3875;46.562;4.898;2024-01-30T04:17:51;5.93;;;5.03;;
7665;SDS011;3875;46.562;4.898;2024-01-30T04:20:17;92.73;;;87.63;;
7665;SDS011;3875;46.562;4.898;2024-01-30T04:22:43;164.20;;;154.10;;
7665;SDS011;3875;46.562;4.898;2024-01-30T04:25:10;64.97;;;61.43;;
7665;SDS011;3875;46.562;4.898;2024-01-30T04:27:36;3.40;;;1.60;;
7665;SDS011;3875;46.562;4.898;2024-01-30T04:30:01;3.43;;;1.53;;
7665;SDS011;3875;46.562;4.898;2024-01-30T04:32:27;1.30;;;0.90;;
7665;SDS011;3875;46.562;4.898;2024-01-30T04:34:53;2.03;;;1.10;;
7665;SDS011;3875;46.562;4.898;2024-01-30T04:37:18;1.50;;;0.83;;
7665;SDS011;3875;46.562;4.898;2024-01-30T04:39:44;1.43;;;0.87;;
7665;SDS011;3875;46.562;4.898;2024-01-30T04:42:10;1.80;;;1.00;;
7665;SDS011;3875;46.562;4.898;2024-01-30T04:44:35;2.63;;;1.53;;
7665;SDS011;3875;46.562;4.898;2024-01-30T04:47:01;2.07;;;1.37;;
7665;SDS011;3875;46.562;4.898;2024-01-30T04:49:27;1.73;;;1.40;;
7665;SDS011;3875;46.562;4.898;2024-01-30T04:51:54;2.30;;;1.97;;
7665;SDS011;3875;46.562;4.898;2024-01-30T04:54:20;2.13;;;1.40;;
7665;SDS011;3875;46.562;4.898;2024-01-30T04:56:46;2.00;;;1.00;;
7665;SDS011;3875;46.562;4.898;2024-01-30T04:59:11;2.10;;;1.03;;
7665;SDS011;3875;46.562;4.898;2024-01-30T05:01:37;1.83;;;1.07;;
7665;SDS011;3875;46.562;4.898;2024-01-30T05:04:03;3.17;;;1.27;;
7665;SDS011;3875;46.562;4.898;2024-01-30T05:06:29;4.33;;;1.60;;
7665;SDS011;3875;46.562;4.898;2024-01-30T05:08:55;5.27;;;2.50;;
7665;SDS011;3875;46.562;4.898;2024-01-30T05:11:21;10.47;;;8.97;;
7665;SDS011;3875;46.562;4.898;2024-01-30T05:13:46;6.60;;;6.10;;
7665;SDS011;3875;46.562;4.898;2024-01-30T05:16:13;2.30;;;1.17;;
7665;SDS011;3875;46.562;4.898;2024-01-30T05:18:38;4.07;;;1.73;;
7665;SDS011;3875;46.562;4.898;2024-01-30T05:21:05;1.70;;;1.10;;
7665;SDS011;3875;46.562;4.898;2024-01-30T05:23:31;1.93;;;1.07;;
7665;SDS011;3875;46.562;4.898;2024-01-30T05:25:56;1.57;;;1.07;;
7665;SDS011;3875;46.562;4.898;2024-01-30T05:28:22;1.70;;;1.07;;
7665;SDS011;3875;46.562;4.898;2024-01-30T05:30:48;2.20;;;1.20;;
7665;SDS011;3875;46.562;4.898;2024-01-30T05:33:13;2.47;;;1.27;;
7665;SDS011;3875;46.562;4.898;2024-01-30T05:35:39;3.70;;;1.87;;
7665;SDS011;3875;46.562;4.898;2024-01-30T05:38:05;3.70;;;2.27;;
7665;SDS011;3875;46.562;4.898;2024-01-30T05:40:31;1.30;;;0.93;;
7665;SDS011;3875;46.562;4.898;2024-01-30T05:42:57;1.77;;;1.27;;
7665;SDS011;3875;46.562;4.898;2024-01-30T05:45:27;1.20;;;0.90;;
7665;SDS011;3875;46.562;4.898;2024-01-30T05:47:53;1.70;;;1.27;;
7665;SDS011;3875;46.562;4.898;2024-01-30T05:50:19;2.27;;;1.60;;
7665;SDS011;3875;46.562;4.898;2024-01-30T05:52:45;2.83;;;1.83;;
7665;SDS011;3875;46.562;4.898;2024-01-30T05:55:11;2.13;;;1.50;;
7665;SDS011;3875;46.562;4.898;2024-01-30T05:57:37;1.00;;;0.87;;
7665;SDS011;3875;46.562;4.898;2024-01-30T06:00:04;4.97;;;2.80;;
7665;SDS011;3875;46.562;4.898;2024-01-30T06:02:30;1.97;;;1.77;;
7665;SDS011;3875;46.562;4.898;2024-01-30T06:04:56;2.77;;;1.53;;
7665;SDS011;3875;46.562;4.898;2024-01-30T06:07:23;2.00;;;1.20;;
7665;SDS011;3875;46.562;4.898;2024-01-30T06:09:49;2.80;;;1.50;;
7665;SDS011;3875;46.562;4.898;2024-01-30T06:12:15;13.60;;;1.33;;
7665;SDS011;3875;46.562;4.898;2024-01-30T06:14:40;1.53;;;1.30;;
7665;SDS011;3875;46.562;4.898;2024-01-30T06:17:07;1.03;;;0.93;;
7665;SDS011;3875;46.562;4.898;2024-01-30T06:19:33;1.77;;;1.10;;
7665;SDS011;3875;46.562;4.898;2024-01-30T06:21:59;1.23;;;0.80;;
7665;SDS011;3875;46.562;4.898;2024-01-30T06:24:25;1.23;;;0.90;;
7665;SDS011;3875;46.562;4.898;2024-01-30T06:26:51;1.37;;;1.27;;
7665;SDS011;3875;46.562;4.898;2024-01-30T06:29:16;1.47;;;1.07;;
7665;SDS011;3875;46.562;4.898;2024-01-30T06:31:42;1.27;;;1.00;;
7665;SDS011;3875;46.562;4.898;2024-01-30T06:34:08;1.13;;;0.80;;
7665;SDS011;3875;46.562;4.898;2024-01-30T06:36:35;1.60;;;1.00;;
7665;SDS011;3875;46.562;4.898;2024-01-30T06:39:01;1.67;;;1.00;;
7665;SDS011;3875;46.562;4.898;2024-01-30T06:41:27;1.80;;;1.10;;
7665;SDS011;3875;46.562;4.898;2024-01-30T06:43:53;1.80;;;1.17;;
7665;SDS011;3875;46.562;4.898;2024-01-30T06:46:19;1.87;;;1.00;;
7665;SDS011;3875;46.562;4.898;2024-01-30T06:48:44;1.63;;;1.10;;
7665;SDS011;3875;46.562;4.898;2024-01-30T06:51:10;1.63;;;1.10;;
7665;SDS011;3875;46.562;4.898;2024-01-30T06:53:37;1.47;;;0.90;;
7665;SDS011;3875;46.562;4.898;2024-01-30T06:56:03;1.90;;;1.40;;
7665;SDS011;3875;46.562;4.898;2024-01-30T06:58:28;3.90;;;1.50;;
7665;SDS011;3875;46.562;4.898;2024-01-30T07:00:55;3.63;;;1.97;;
7665;SDS011;3875;46.562;4.898;2024-01-30T07:03:21;1.40;;;0.93;;
7665;SDS011;3875;46.562;4.898;2024-01-30T07:05:47;2.13;;;1.57;;
7665;SDS011;3875;46.562;4.898;2024-01-30T07:08:13;2.03;;;1.17;;
7665;SDS011;3875;46.562;4.898;2024-01-30T07:10:39;0.93;;;0.80;;
7665;SDS011;3875;46.562;4.898;2024-01-30T07:13:05;1.77;;;1.60;;
7665;SDS011;3875;46.562;4.898;2024-01-30T07:15:31;1.80;;;1.07;;
7665;SDS011;3875;46.562;4.898;2024-01-30T07:17:56;1.03;;;0.80;;
7665;SDS011;3875;46.562;4.898;2024-01-30T07:20:22;1.07;;;0.73;;
7665;SDS011;3875;46.562;4.898;2024-01-30T07:22:48;1.13;;;1.03;;
7665;SDS011;3875;46.562;4.898;2024-01-30T07:25:14;1.67;;;1.27;;
7665;SDS011;3875;46.562;4.898;2024-01-30T07:27:41;2.03;;;1.27;;
7665;SDS011;3875;46.562;4.898;2024-01-30T07:30:07;3.37;;;1.87;;
7665;SDS011;3875;46.562;4.898;2024-01-30T07:32:33;2.10;;;1.50;;
7665;SDS011;3875;46.562;4.898;2024-01-30T07:34:59;1.13;;;0.80;;
7665;SDS011;3875;46.562;4.898;2024-01-30T07:37:24;1.70;;;1.07;;
7665;SDS011;3875;46.562;4.898;2024-01-30T07:39:50;1.73;;;1.03;;
7665;SDS011;3875;46.562;4.898;2024-01-30T07:42:16;1.50;;;0.93;;
7665;SDS011;3875;46.562;4.898;2024-01-30T07:44:42;1.20;;;0.80;;
7665;SDS011;3875;46.562;4.898;2024-01-30T07:47:08;2.20;;;1.73;;
7665;SDS011;3875;46.562;4.898;2024-01-30T07:49:34;1.60;;;1.00;;
7665;SDS011;3875;46.562;4.898;2024-01-30T07:51:59;1.50;;;1.00;;
7665;SDS011;3875;46.562;4.898;2024-01-30T07:54:25;1.20;;;1.10;;
7665;SDS011;3875;46.562;4.898;2024-01-30T07:56:51;1.00;;;0.80;;
7665;SDS011;3875;46.562;4.898;2024-01-30T07:59:17;1.83;;;1.10;;
7665;SDS011;3875;46.562;4.898;2024-01-30T08:01:44;1.77;;;1.00;;
7665;SDS011;3875;46.562;4.898;2024-01-30T08:04:10;1.97;;;1.07;;
7665;SDS011;3875;46.562;4.898;2024-01-30T08:06:35;1.00;;;0.87;;
7665;SDS011;3875;46.562;4.898;2024-01-30T08:09:01;1.67;;;1.20;;
7665;SDS011;3875;46.562;4.898;2024-01-30T08:11:27;1.07;;;0.90;;
7665;SDS011;3875;46.562;4.898;2024-01-30T08:13:54;1.27;;;0.93;;
7665;SDS011;3875;46.562;4.898;2024-01-30T08:16:20;12.00;;;2.80;;
7665;SDS011;3875;46.562;4.898;2024-01-30T08:18:46;1.47;;;0.93;;
7665;SDS011;3875;46.562;4.898;2024-01-30T08:21:12;1.43;;;1.03;;
7665;SDS011;3875;46.562;4.898;2024-01-30T08:23:38;1.23;;;1.10;;
7665;SDS011;3875;46.562;4.898;2024-01-30T08:26:04;1.97;;;1.17;;
7665;SDS011;3875;46.562;4.898;2024-01-30T08:28:30;1.50;;;1.07;;
7665;SDS011;3875;46.562;4.898;2024-01-30T08:30:56;2.30;;;1.47;;
7665;SDS011;3875;46.562;4.898;2024-01-30T08:33:22;1.67;;;1.10;;
7665;SDS011;3875;46.562;4.898;2024-01-30T08:35:48;4.43;;;1.63;;
7665;SDS011;3875;46.562;4.898;2024-01-30T08:38:13;2.73;;;1.40;;
7665;SDS011;3875;46.562;4.898;2024-01-30T08:40:39;3.40;;;1.83;;
7665;SDS011;3875;46.562;4.898;2024-01-30T08:43:04;2.77;;;1.13;;
7665;SDS011;3875;46.562;4.898;2024-01-30T08:45:30;3.17;;;1.50;;
7665;SDS011;3875;46.562;4.898;2024-01-30T08:47:56;3.57;;;1.33;;
7665;SDS011;3875;46.562;4.898;2024-01-30T08:50:22;3.00;;;1.20;;
7665;SDS011;3875;46.562;4.898;2024-01-30T08:52:47;2.17;;;1.00;;
7665;SDS011;3875;46.562;4.898;2024-01-30T08:55:13;2.30;;;1.13;;
7665;SDS011;3875;46.562;4.898;2024-01-30T08:57:39;2.27;;;1.20;;
7665;SDS011;3875;46.562;4.898;2024-01-30T09:00:05;3.70;;;2.23;;
7665;SDS011;3875;46.562;4.898;2024-01-30T09:02:33;1.77;;;1.13;;
7665;SDS011;3875;46.562;4.898;2024-01-30T09:04:59;2.43;;;1.13;;
7665;SDS011;3875;46.562;4.898;2024-01-30T09:07:25;2.20;;;1.13;;
7665;SDS011;3875;46.562;4.898;2024-01-30T09:09:51;3.23;;;1.40;;
7665;SDS011;3875;46.562;4.898;2024-01-30T09:12:16;4.27;;;2.40;;
7665;SDS011;3875;46.562;4.898;2024-01-30T09:14:42;5.73;;;4.53;;
7665;SDS011;3875;46.562;4.898;2024-01-30T09:17:08;6.00;;;2.33;;
7665;SDS011;3875;46.562;4.898;2024-01-30T09:19:34;5.33;;;2.57;;
7665;SDS011;3875;46.562;4.898;2024-01-30T09:21:59;4.80;;;1.50;;
7665;SDS011;3875;46.562;4.898;2024-01-30T09:24:26;2.37;;;1.10;;
7665;SDS011;3875;46.562;4.898;2024-01-30T09:26:52;1.73;;;1.00;;
7665;SDS011;3875;46.562;4.898;2024-01-30T09:29:18;2.07;;;1.40;;
7665;SDS011;3875;46.562;4.898;2024-01-30T09:31:44;1.73;;;1.00;;
7665;SDS011;3875;46.562;4.898;2024-01-30T09:34:10;1.30;;;1.20;;
7665;SDS011;3875;46.562;4.898;2024-01-30T09:36:36;1.87;;;1.00;;
7665;SDS011;3875;46.562;4.898;2024-01-30T09:39:02;2.03;;;1.00;;
7665;SDS011;3875;46.562;4.898;2024-01-30T09:41:29;3.03;;;1.57;;
7665;SDS011;3875;46.562;4.898;2024-01-30T09:43:58;1.53;;;1.17;;
7665;SDS011;3875;46.562;4.898;2024-01-30T09:46:26;1.43;;;0.97;;
7665;SDS011;3875;46.562;4.898;2024-01-30T09:48:53;1.73;;;1.03;;
7665;SDS011;3875;46.562;4.898;2024-01-30T09:51:20;2.10;;;1.17;;
7665;SDS011;3875;46.562;4.898;2024-01-30T09:53:47;2.30;;;1.30;;
7665;SDS011;3875;46.562;4.898;2024-01-30T09:56:14;2.00;;;1.17;;
7665;SDS011;3875;46.562;4.898;2024-01-30T09:58:39;2.37;;;1.53;;
7665;SDS011;3875;46.562;4.898;2024-01-30T10:01:05;1.63;;;0.90;;
7665;SDS011;3875;46.562;4.898;2024-01-30T10:03:31;1.43;;;1.07;;
7665;SDS011;3875;46.562;4.898;2024-01-30T10:05:57;2.17;;;1.40;;
7665;SDS011;3875;46.562;4.898;2024-01-30T10:08:23;5.23;;;1.57;;
7665;SDS011;3875;46.562;4.898;2024-01-30T10:10:49;2.30;;;1.10;;
7665;SDS011;3875;46.562;4.898;2024-01-30T10:13:18;1.23;;;0.80;;
7665;SDS011;3875;46.562;4.898;2024-01-30T10:15:44;1.60;;;0.90;;
7665;SDS011;3875;46.562;4.898;2024-01-30T10:18:10;1.30;;;0.90;;
7665;SDS011;3875;46.562;4.898;2024-01-30T10:20:36;2.30;;;1.20;;
7665;SDS011;3875;46.562;4.898;2024-01-30T10:23:02;3.60;;;2.87;;
7665;SDS011;3875;46.562;4.898;2024-01-30T10:25:28;1.83;;;1.13;;
7665;SDS011;3875;46.562;4.898;2024-01-30T10:27:56;1.70;;;1.10;;
7665;SDS011;3875;46.562;4.898;2024-01-30T10:30:23;0.93;;;0.70;;
7665;SDS011;3875;46.562;4.898;2024-01-30T10:32:49;1.77;;;1.17;;
7665;SDS011;3875;46.562;4.898;2024-01-30T10:35:15;2.10;;;1.33;;
7665;SDS011;3875;46.562;4.898;2024-01-30T10:37:44;1.83;;;1.03;;
7665;SDS011;3875;46.562;4.898;2024-01-30T10:40:13;3.07;;;1.83;;
7665;SDS011;3875;46.562;4.898;2024-01-30T10:42:42;1.20;;;0.90;;
7665;SDS011;3875;46.562;4.898;2024-01-30T10:45:09;3.10;;;1.70;;
7665;SDS011;3875;46.562;4.898;2024-01-30T10:47:49;2.40;;;1.47;;
7665;SDS011;3875;46.562;4.898;2024-01-30T10:50:15;2.77;;;1.93;;
7665;SDS011;3875;46.562;4.898;2024-01-30T10:52:41;0.73;;;0.70;;
7665;SDS011;3875;46.562;4.898;2024-01-30T10:55:07;2.97;;;1.50;;
7665;SDS011;3875;46.562;4.898;2024-01-30T10:57:34;2.83;;;1.47;;
7665;SDS011;3875;46.562;4.898;2024-01-30T11:00:02;4.43;;;1.67;;
7665;SDS011;3875;46.562;4.898;2024-01-30T11:02:41;7.60;;;2.60;;
7665;SDS011;3875;46.562;4.898;2024-01-30T11:05:09;6.70;;;2.00;;
7665;SDS011;3875;46.562;4.898;2024-01-30T11:07:35;5.17;;;1.60;;
7665;SDS011;3875;46.562;4.898;2024-01-30T11:10:02;14.87;;;3.93;;
7665;SDS011;3875;46.562;4.898;2024-01-30T11:12:32;4.80;;;1.60;;
7665;SDS011;3875;46.562;4.898;2024-01-30T11:17:41;4.87;;;1.53;;
7665;SDS011;3875;46.562;4.898;2024-01-30T11:20:29;4.13;;;1.40;;
7665;SDS011;3875;46.562;4.898;2024-01-30T11:23:00;5.53;;;1.80;;
7665;SDS011;3875;46.562;4.898;2024-01-30T11:25:32;5.60;;;2.00;;
7665;SDS011;3875;46.562;4.898;2024-01-30T11:27:58;2.37;;;1.17;;
7665;SDS011;3875;46.562;4.898;2024-01-30T11:30:27;1.50;;;0.80;;
7665;SDS011;3875;46.562;4.898;2024-01-30T11:33:04;1.90;;;0.90;;
7665;SDS011;3875;46.562;4.898;2024-01-30T11:35:40;4.23;;;1.70;;
7665;SDS011;3875;46.562;4.898;2024-01-30T11:38:07;4.27;;;1.80;;
7665;SDS011;3875;46.562;4.898;2024-01-30T11:40:34;3.00;;;1.37;;
7665;SDS011;3875;46.562;4.898;2024-01-30T11:43:02;2.97;;;1.47;;
7665;SDS011;3875;46.562;4.898;2024-01-30T11:45:29;12.67;;;5.73;;
7665;SDS011;3875;46.562;4.898;2024-01-30T11:47:56;17.37;;;4.23;;
7665;SDS011;3875;46.562;4.898;2024-01-30T11:50:22;7.50;;;6.53;;
7665;SDS011;3875;46.562;4.898;2024-01-30T11:52:49;6.63;;;2.63;;
7665;SDS011;3875;46.562;4.898;2024-01-30T11:55:15;3.37;;;1.43;;
7665;SDS011;3875;46.562;4.898;2024-01-30T11:57:42;5.43;;;2.03;;
7665;SDS011;3875;46.562;4.898;2024-01-30T12:00:17;35.70;;;33.50;;
7665;SDS011;3875;46.562;4.898;2024-01-30T12:02:44;4.07;;;1.90;;
7665;SDS011;3875;46.562;4.898;2024-01-30T12:05:15;4.23;;;1.53;;
7665;SDS011;3875;46.562;4.898;2024-01-30T12:07:43;5.70;;;1.97;;
7665;SDS011;3875;46.562;4.898;2024-01-30T12:10:10;4.57;;;2.13;;
7665;SDS011;3875;46.562;4.898;2024-01-30T12:12:38;6.13;;;2.43;;
7665;SDS011;3875;46.562;4.898;2024-01-30T12:15:06;1.27;;;0.90;;
7665;SDS011;3875;46.562;4.898;2024-01-30T12:17:33;2.53;;;1.37;;
7665;SDS011;3875;46.562;4.898;2024-01-30T12:20:15;2.13;;;1.33;;
7665;SDS011;3875;46.562;4.898;2024-01-30T12:22:44;3.53;;;1.20;;
7665;SDS011;3875;46.562;4.898;2024-01-30T12:25:21;2.10;;;1.20;;
7665;SDS011;3875;46.562;4.898;2024-01-30T12:27:49;1.50;;;1.20;;
7665;SDS011;3875;46.562;4.898;2024-01-30T12:30:15;3.43;;;1.70;;
7665;SDS011;3875;46.562;4.898;2024-01-30T12:32:43;1.90;;;1.10;;
7665;SDS011;3875;46.562;4.898;2024-01-30T12:35:10;2.53;;;1.20;;
7665;SDS011;3875;46.562;4.898;2024-01-30T12:37:36;2.40;;;1.20;;
7665;SDS011;3875;46.562;4.898;2024-01-30T12:40:02;3.60;;;1.50;;
7665;SDS011;3875;46.562;4.898;2024-01-30T12:42:28;5.30;;;1.80;;
7665;SDS011;3875;46.562;4.898;2024-01-30T12:44:56;6.87;;;2.47;;
7665;SDS011;3875;46.562;4.898;2024-01-30T12:47:23;4.93;;;2.23;;
7665;SDS011;3875;46.562;4.898;2024-01-30T12:49:49;7.80;;;2.90;;
7665;SDS011;3875;46.562;4.898;2024-01-30T12:52:18;3.20;;;1.80;;
7665;SDS011;3875;46.562;4.898;2024-01-30T12:54:44;3.97;;;2.17;;
7665;SDS011;3875;46.562;4.898;2024-01-30T12:57:10;3.77;;;1.63;;
7665;SDS011;3875;46.562;4.898;2024-01-30T12:59:36;4.00;;;1.60;;
7665;SDS011;3875;46.562;4.898;2024-01-30T13:02:02;4.97;;;1.80;;
7665;SDS011;3875;46.562;4.898;2024-01-30T13:04:28;4.30;;;1.80;;
7665;SDS011;3875;46.562;4.898;2024-01-30T13:06:54;3.20;;;1.43;;
7665;SDS011;3875;46.562;4.898;2024-01-30T13:09:20;2.60;;;1.77;;
7665;SDS011;3875;46.562;4.898;2024-01-30T13:11:46;7.57;;;3.03;;
7665;SDS011;3875;46.562;4.898;2024-01-30T13:14:12;7.13;;;2.73;;
7665;SDS011;3875;46.562;4.898;2024-01-30T13:16:37;11.73;;;6.67;;
7665;SDS011;3875;46.562;4.898;2024-01-30T13:19:03;6.17;;;2.97;;
7665;SDS011;3875;46.562;4.898;2024-01-30T13:21:29;2.57;;;1.37;;
7665;SDS011;3875;46.562;4.898;2024-01-30T13:23:55;2.80;;;1.40;;
7665;SDS011;3875;46.562;4.898;2024-01-30T13:26:20;2.53;;;1.20;;
7665;SDS011;3875;46.562;4.898;2024-01-30T13:28:46;3.37;;;1.80;;
7665;SDS011;3875;46.562;4.898;2024-01-30T13:31:15;2.80;;;1.30;;
7665;SDS011;3875;46.562;4.898;2024-01-30T13:33:41;5.23;;;2.10;;
7665;SDS011;3875;46.562;4.898;2024-01-30T13:36:10;4.50;;;2.47;;
7665;SDS011;3875;46.562;4.898;2024-01-30T13:38:37;5.17;;;2.03;;
7665;SDS011;3875;46.562;4.898;2024-01-30T13:41:04;3.23;;;2.23;;
7665;SDS011;3875;46.562;4.898;2024-01-30T13:43:30;3.27;;;1.40;;
7665;SDS011;3875;46.562;4.898;2024-01-30T13:45:55;3.07;;;1.30;;
7665;SDS011;3875;46.562;4.898;2024-01-30T13:48:21;4.47;;;2.17;;
7665;SDS011;3875;46.562;4.898;2024-01-30T13:50:47;3.07;;;1.37;;
7665;SDS011;3875;46.562;4.898;2024-01-30T13:53:13;3.87;;;1.50;;
7665;SDS011;3875;46.562;4.898;2024-01-30T13:55:39;4.90;;;1.90;;
7665;SDS011;3875;46.562;4.898;2024-01-30T13:58:05;6.07;;;1.97;;
7665;SDS011;3875;46.562;4.898;2024-01-30T14:00:31;7.47;;;2.37;;
7665;SDS011;3875;46.562;4.898;2024-01-30T14:02:57;8.50;;;2.67;;
7665;SDS011;3875;46.562;4.898;2024-01-30T14:05:24;11.80;;;3.37;;
7665;SDS011;3875;46.562;4.898;2024-01-30T14:07:50;8.87;;;2.77;;
7665;SDS011;3875;46.562;4.898;2024-01-30T14:10:17;5.53;;;1.93;;
7665;SDS011;3875;46.562;4.898;2024-01-30T14:12:43;5.93;;;2.17;;
7665;SDS011;3875;46.562;4.898;2024-01-30T14:15:09;5.40;;;1.90;;
7665;SDS011;3875;46.562;4.898;2024-01-30T14:17:36;4.50;;;1.73;;
7665;SDS011;3875;46.562;4.898;2024-01-30T14:20:02;5.03;;;1.97;;
7665;SDS011;3875;46.562;4.898;2024-01-30T14:22:29;6.83;;;4.40;;
7665;SDS011;3875;46.562;4.898;2024-01-30T14:24:55;4.50;;;1.90;;
7665;SDS011;3875;46.562;4.898;2024-01-30T14:27:21;2.93;;;1.40;;
7665;SDS011;3875;46.562;4.898;2024-01-30T14:29:47;2.27;;;1.20;;
7665;SDS011;3875;46.562;4.898;2024-01-30T14:32:13;2.87;;;1.70;;
7665;SDS011;3875;46.562;4.898;2024-01-30T14:34:39;1.63;;;1.53;;
7665;SDS011;3875;46.562;4.898;2024-01-30T14:37:05;2.73;;;1.53;;
7665;SDS011;3875;46.562;4.898;2024-01-30T14:39:30;3.57;;;1.57;;
7665;SDS011;3875;46.562;4.898;2024-01-30T14:41:57;2.37;;;1.20;;
7665;SDS011;3875;46.562;4.898;2024-01-30T14:44:23;1.37;;;1.27;;
7665;SDS011;3875;46.562;4.898;2024-01-30T14:46:49;1.20;;;1.00;;
7665;SDS011;3875;46.562;4.898;2024-01-30T14:49:18;1.30;;;1.20;;
7665;SDS011;3875;46.562;4.898;2024-01-30T14:51:43;1.63;;;1.43;;
7665;SDS011;3875;46.562;4.898;2024-01-30T14:54:09;1.60;;;1.10;;
7665;SDS011;3875;46.562;4.898;2024-01-30T14:56:36;1.40;;;1.17;;
7665;SDS011;3875;46.562;4.898;2024-01-30T14:59:01;2.47;;;1.73;;
7665;SDS011;3875;46.562;4.898;2024-01-30T15:01:27;1.73;;;1.23;;
7665;SDS011;3875;46.562;4.898;2024-01-30T15:03:53;2.37;;;1.53;;
7665;SDS011;3875;46.562;4.898;2024-01-30T15:06:20;1.57;;;1.20;;
7665;SDS011;3875;46.562;4.898;2024-01-30T15:08:49;1.77;;;1.10;;
7665;SDS011;3875;46.562;4.898;2024-01-30T15:11:18;2.37;;;1.53;;